Time;durP1;ratioP1;P1;durP2;ratioP2;P2;SDS_P1;SDS_P2;PMS_P1;PMS_P2;Temp;Humidity;BMP_temperature;BMP_pressure;BME280_temperature;BME280_humidity;BME280_pressure;Samples;Min_cycle;Max_cycle;Signal;HPM_P1;HPM_P2
2024/01/05 00:01:33;;;;;;;6.85;2.70;;;;;;;6.98;63.93;98696.69;10506201;28;20051;-63
2024/01/05 00:06:37;;;;;;;6.00;2.92;;;;;;;6.99;63.82;98688.84;10523947;28;20051;-62
2024/01/05 00:11:39;;;;;;;7.22;2.60;;;;;;;6.89;63.92;98684.31;10523483;28;20150;-62
2024/01/05 00:16:41;;;;;;;8.93;3.05;;;;;;;6.79;64.25;98685.84;10521499;28;20139;-63
2024/01/05 00:21:44;;;;;;;6.63;2.90;;;;;;;6.69;64.35;98669.19;10522976;28;20127;-63
2024/01/05 00:26:46;;;;;;;4.88;2.47;;;;;;;6.72;64.45;98658.56;10522980;28;20151;-62
2024/01/05 00:31:48;;;;;;;7.53;2.55;;;;;;;6.73;64.13;98639.47;10498473;28;20056;-63
2024/01/05 00:36:50;;;;;;;8.00;2.35;;;;;;;6.27;64.94;98628.56;10504199;28;20419;-62
2024/01/05 00:41:52;;;;;;;6.35;2.88;;;;;;;6.11;65.43;98622.63;10522433;28;20055;-62
2024/01/05 00:46:54;;;;;;;9.05;4.60;;;;;;;6.03;65.59;98617.09;10520757;28;20132;-62
2024/01/05 00:51:56;;;;;;;6.22;2.92;;;;;;;6.16;65.84;98603.28;10503371;28;20106;-63
2024/01/05 00:56:58;;;;;;;6.88;2.75;;;;;;;6.34;65.39;98596.09;10521568;28;20048;-62
2024/01/05 01:02:00;;;;;;;5.38;2.92;;;;;;;6.50;65.17;98586.41;10520939;28;20495;-62
2024/01/05 01:07:02;;;;;;;7.53;3.20;;;;;;;6.54;65.00;98587.03;10520593;28;20040;-62
2024/01/05 01:12:04;;;;;;;5.47;2.95;;;;;;;6.54;64.96;98580.06;10520771;28;20297;-63
2024/01/05 01:17:06;;;;;;;5.32;2.40;;;;;;;6.46;65.03;98584.09;10520605;28;20067;-63
2024/01/05 01:22:08;;;;;;;8.40;2.72;;;;;;;6.35;65.25;98583.00;10520489;28;20496;-62
2024/01/05 01:27:10;;;;;;;7.63;2.22;;;;;;;6.31;65.17;98563.38;10521028;28;20132;-63
2024/01/05 01:32:12;;;;;;;8.60;3.53;;;;;;;6.18;65.30;98567.66;10520115;28;20559;-63
2024/01/05 01:37:14;;;;;;;4.40;2.13;;;;;;;6.16;65.56;98563.50;10519266;28;20043;-63
2024/01/05 01:42:16;;;;;;;7.00;2.85;;;;;;;6.23;65.50;98568.19;10519668;28;20135;-63
2024/01/05 01:47:19;;;;;;;6.80;2.75;;;;;;;6.24;65.29;98556.06;10519746;28;20143;-62
2024/01/05 01:52:21;;;;;;;7.05;2.80;;;;;;;6.22;65.35;98563.09;10519714;28;20044;-63
2024/01/05 01:57:24;;;;;;;9.45;3.22;;;;;;;6.26;65.27;98556.81;10518362;28;20058;-63
2024/01/05 02:02:27;;;;;;;7.60;3.15;;;;;;;6.30;65.22;98558.28;10518943;28;20097;-62
2024/01/05 02:07:29;;;;;;;6.18;2.65;;;;;;;6.22;65.32;98550.97;10518589;28;20131;-62
2024/01/05 02:12:31;;;;;;;4.47;2.40;;;;;;;6.18;65.40;98544.31;10519004;28;20484;-62
2024/01/05 02:17:34;;;;;;;5.90;2.78;;;;;;;6.08;65.44;98537.19;10518332;28;20052;-62
2024/01/05 02:22:40;;;;;;;7.20;2.28;;;;;;;5.95;65.61;98526.75;10500804;28;20617;-62
2024/01/05 02:27:42;;;;;;;4.32;2.15;;;;;;;5.80;65.82;98519.91;10500531;28;20522;-62
2024/01/05 02:32:44;;;;;;;4.07;2.10;;;;;;;5.52;66.32;98519.97;10517703;28;20052;-62
2024/01/05 02:37:46;;;;;;;4.65;1.83;;;;;;;5.47;66.77;98501.28;10499381;28;20093;-62
2024/01/05 02:42:48;;;;;;;9.23;1.60;;;;;;;5.50;67.06;98496.75;10517611;28;20058;-62
2024/01/05 02:47:51;;;;;;;2.85;1.75;;;;;;;5.47;67.17;98494.31;10517971;28;20127;-63
2024/01/05 02:52:53;;;;;;;4.13;1.48;;;;;;;5.37;67.35;98488.03;10517149;28;20147;-62
2024/01/05 02:57:55;;;;;;;3.83;2.08;;;;;;;5.43;66.83;98484.25;10516674;28;20056;-63
2024/01/05 03:02:57;;;;;;;4.65;2.08;;;;;;;5.27;67.04;98470.53;10516577;28;20565;-62
2024/01/05 03:07:59;;;;;;;7.65;2.47;;;;;;;5.22;67.78;98477.78;10515623;28;20411;-63
2024/01/05 03:13:01;;;;;;;4.63;2.47;;;;;;;5.14;67.76;98485.19;10498369;28;20553;-62
2024/01/05 03:18:03;;;;;;;5.78;1.63;;;;;;;5.11;68.17;98478.44;10515986;28;20134;-63
2024/01/05 03:23:05;;;;;;;3.95;1.52;;;;;;;5.18;68.15;98466.78;10516594;28;20048;-62
2024/01/05 03:28:07;;;;;;;6.75;1.73;;;;;;;5.18;68.30;98450.38;10516426;28;20050;-62
2024/01/05 03:33:09;;;;;;;5.22;1.40;;;;;;;5.34;67.89;98449.34;10516280;28;20051;-63
2024/01/05 03:38:11;;;;;;;10.13;1.73;;;;;;;5.48;67.93;98443.31;10515515;28;20165;-62
2024/01/05 03:43:13;;;;;;;6.90;2.05;;;;;;;5.54;67.99;98438.56;10515728;28;20547;-62
2024/01/05 03:48:16;;;;;;;3.17;1.70;;;;;;;5.75;67.48;98446.75;10515791;28;20048;-63
2024/01/05 03:53:19;;;;;;;4.00;1.83;;;;;;;5.96;67.16;98432.38;10515681;28;20032;-62
2024/01/05 03:58:21;;;;;;;6.53;1.80;;;;;;;5.91;67.09;98426.69;10515863;28;20048;-62
2024/01/05 04:03:23;;;;;;;6.32;2.00;;;;;;;5.96;66.92;98426.41;10515584;28;20172;-63
2024/01/05 04:08:25;;;;;;;3.58;1.55;;;;;;;5.97;66.59;98434.06;10514799;28;20042;-62
2024/01/05 04:13:27;;;;;;;2.40;1.60;;;;;;;5.93;66.63;98423.97;10513456;28;20419;-63
2024/01/05 04:18:30;;;;;;;3.97;1.55;;;;;;;6.02;66.68;98432.00;10514855;28;20109;-63
2024/01/05 04:23:32;;;;;;;8.32;2.20;;;;;;;6.15;66.21;98430.28;10515503;28;20044;-62
2024/01/05 04:28:34;;;;;;;2.85;1.58;;;;;;;6.14;66.48;98425.19;10518782;28;20055;-63
2024/01/05 04:33:36;;;;;;;7.45;1.40;;;;;;;6.26;66.16;98407.09;10522897;28;20055;-62
2024/01/05 04:38:39;;;;;;;2.45;1.40;;;;;;;6.35;65.99;98400.41;10522631;28;20145;-63
2024/01/05 04:43:41;;;;;;;3.97;1.60;;;;;;;6.35;66.10;98387.44;10521794;28;20089;-63
2024/01/05 04:48:43;;;;;;;6.57;1.42;;;;;;;6.26;65.90;98381.13;10521201;28;20044;-62
2024/01/05 04:53:46;;;;;;;4.35;2.42;;;;;;;6.16;66.16;98374.00;10522275;28;20071;-62
2024/01/05 04:58:48;;;;;;;4.32;1.55;;;;;;;6.15;66.12;98365.38;10521458;28;20071;-63
2024/01/05 05:03:50;;;;;;;3.58;1.23;;;;;;;6.16;66.01;98359.28;10522033;28;20494;-62
2024/01/05 05:08:52;;;;;;;3.83;1.23;;;;;;;6.28;65.86;98365.44;10521694;28;20068;-62
2024/01/05 05:13:54;;;;;;;3.45;1.63;;;;;;;6.31;65.66;98355.66;10520353;28;20450;-63
2024/01/05 05:18:56;;;;;;;3.33;1.33;;;;;;;6.35;65.39;98349.34;10521367;28;20058;-62
2024/01/05 05:23:58;;;;;;;2.03;1.20;;;;;;;6.43;65.30;98376.56;10521129;28;20055;-62
2024/01/05 05:29:00;;;;;;;5.85;1.40;;;;;;;6.45;65.39;98380.69;10536746;27;20046;-63
2024/01/05 05:34:02;;;;;;;2.17;1.60;;;;;;;6.54;65.34;98379.25;10520159;28;20108;-62
2024/01/05 05:39:05;;;;;;;2.47;1.33;;;;;;;6.62;65.18;98377.78;10518836;28;20441;-63
2024/01/05 05:44:07;;;;;;;4.53;1.67;;;;;;;6.68;64.98;98392.13;10520126;28;20137;-62
2024/01/05 05:49:10;;;;;;;3.58;1.83;;;;;;;6.79;64.74;98381.84;10519957;28;20052;-62
2024/01/05 05:54:12;;;;;;;5.03;1.90;;;;;;;6.81;64.85;98392.97;10519824;28;20404;-62
2024/01/05 05:59:14;;;;;;;4.65;1.40;;;;;;;6.79;64.73;98389.63;10519529;28;20461;-62
2024/01/05 06:04:16;;;;;;;5.65;2.10;;;;;;;6.58;64.77;98381.53;10516325;28;20044;-63
2024/01/05 06:09:18;;;;;;;2.33;1.30;;;;;;;6.36;65.33;98381.31;10517607;28;20048;-63
2024/01/05 06:14:21;;;;;;;3.60;1.67;;;;;;;6.33;65.56;98390.16;10484519;28;20575;-63
2024/01/05 06:19:24;;;;;;;6.05;1.80;;;;;;;6.35;65.41;98380.50;10517439;28;20051;-62
2024/01/05 06:24:26;;;;;;;4.15;1.65;;;;;;;6.38;65.33;98389.00;10516888;28;20093;-62
2024/01/05 06:29:28;;;;;;;3.25;1.67;;;;;;;6.23;65.58;98383.88;10497976;28;20152;-63
2024/01/05 06:34:30;;;;;;;5.18;1.95;;;;;;;6.29;65.70;98388.69;10517215;28;20078;-63
2024/01/05 06:39:33;;;;;;;4.10;1.83;;;;;;;6.46;65.38;98381.53;10500266;28;20163;-63
2024/01/05 06:44:35;;;;;;;3.50;1.75;;;;;;;6.55;65.26;98388.72;10516720;28;20445;-63
2024/01/05 06:49:37;;;;;;;2.33;1.30;;;;;;;6.51;65.32;98397.66;10516734;28;20036;-62
2024/01/05 06:54:39;;;;;;;7.07;1.83;;;;;;;6.46;65.22;98397.13;10498570;28;20047;-63
2024/01/05 06:59:41;;;;;;;3.03;1.40;;;;;;;6.44;65.28;98409.38;10515644;28;20056;-63
2024/01/05 07:04:43;;;;;;;3.30;1.40;;;;;;;6.52;65.10;98402.72;10514126;28;20514;-62
2024/01/05 07:09:45;;;;;;;2.88;1.45;;;;;;;6.42;65.48;98406.03;10515564;28;20130;-63
2024/01/05 07:14:47;;;;;;;6.35;2.00;;;;;;;6.44;65.53;98404.19;10514966;28;20419;-63
2024/01/05 07:19:49;;;;;;;4.18;1.50;;;;;;;6.49;65.32;98389.94;10515567;28;20043;-63
2024/01/05 07:24:51;;;;;;;5.93;1.65;;;;;;;6.52;65.59;98383.72;10497357;28;20056;-69
2024/01/05 07:29:55;;;;;;;2.65;1.45;;;;;;;6.60;65.42;98379.66;10515058;28;20051;-69
2024/01/05 07:34:57;;;;;;;4.85;1.60;;;;;;;6.72;65.36;98383.19;10510074;28;20044;-69
2024/01/05 07:39:59;;;;;;;6.30;1.65;;;;;;;6.73;65.19;98384.84;10509767;28;20052;-68
2024/01/05 07:45:01;;;;;;;5.55;1.42;;;;;;;6.81;65.09;98378.22;10497622;28;20044;-69
2024/01/05 07:50:05;;;;;;;4.70;1.90;;;;;;;6.94;64.92;98379.00;10476520;28;20043;-68
2024/01/05 07:55:09;;;;;;;6.63;1.70;;;;;;;7.08;64.71;98380.66;10496653;28;20144;-68
2024/01/05 08:00:11;;;;;;;2.20;1.58;;;;;;;7.23;64.33;98379.56;10514246;28;20109;-68
2024/01/05 08:05:18;;;;;;;3.25;1.63;;;;;;;7.10;64.30;98365.78;10521426;28;20048;-68
2024/01/05 08:10:20;;;;;;;2.97;1.38;;;;;;;6.98;64.53;98371.81;10488355;28;20052;-69
2024/01/05 08:15:22;;;;;;;2.67;1.33;;;;;;;6.98;64.40;98374.41;10522048;28;20484;-68
2024/01/05 08:20:37;;;;;;;2.92;1.23;;;;;;;7.24;64.11;98364.81;10521637;28;20059;-68
2024/01/05 08:25:39;;;;;;;2.20;1.23;;;;;;;7.48;63.58;98363.03;10503477;28;20139;-68
2024/01/05 08:30:41;;;;;;;2.22;1.08;;;;;;;7.79;63.18;98368.50;10522117;28;20557;-69
2024/01/05 08:35:43;;;;;;;8.07;1.60;;;;;;;8.04;62.58;98355.34;10521452;28;20048;-69
2024/01/05 08:40:46;;;;;;;4.13;1.42;;;;;;;8.10;62.59;98351.50;10502889;28;20565;-69
2024/01/05 08:45:48;;;;;;;8.48;2.33;;;;;;;8.10;62.72;98355.84;10520778;28;20454;-69
2024/01/05 08:50:54;;;;;;;3.08;1.42;;;;;;;8.23;62.46;98346.19;10520921;28;20044;-69
2024/01/05 08:55:56;;;;;;;1.60;1.13;;;;;;;8.55;61.79;98334.16;10520933;28;20047;-69
2024/01/05 09:00:57;;;;;;;3.10;1.55;;;;;;;8.69;61.06;98339.97;10520129;28;20051;-69
2024/01/05 09:06:00;;;;;;;4.10;1.40;;;;;;;8.78;61.01;98346.25;10521574;28;20040;-69
2024/01/05 09:11:02;;;;;;;2.80;1.00;;;;;;;8.73;60.85;98350.97;10520238;28;20121;-69
2024/01/05 09:16:04;;;;;;;5.68;1.38;;;;;;;8.73;60.64;98350.97;10518689;28;20279;-69
2024/01/05 09:21:07;;;;;;;2.95;1.08;;;;;;;8.80;60.37;98344.38;10517180;28;20056;-69
2024/01/05 09:26:14;;;;;;;3.03;1.70;;;;;;;8.79;59.71;98353.16;10520170;28;20412;-70
2024/01/05 09:31:16;;;;;;;2.95;1.13;;;;;;;8.78;60.13;98364.50;10519885;28;20078;-69
2024/01/05 09:36:19;;;;;;;8.50;3.30;;;;;;;8.76;60.29;98376.81;10520420;28;20051;-68
2024/01/05 09:41:41;;;;;;;4.95;1.45;;;;;;;8.73;60.55;98372.66;10502688;28;20060;-69
2024/01/05 09:47:03;;;;;;;5.68;1.38;;;;;;;8.97;60.33;98377.78;10502332;28;20050;-68
2024/01/05 09:52:26;;;;;;;2.15;1.13;;;;;;;8.95;60.44;98379.69;10503713;28;20177;-69
2024/01/05 09:57:51;;;;;;;2.00;1.13;;;;;;;8.94;60.47;98388.44;10502851;28;20051;-69
2024/01/05 10:03:24;;;;;;;1.95;1.20;;;;;;;8.95;60.22;98394.50;10502658;28;20064;-68
2024/01/05 10:08:46;;;;;;;3.15;1.73;;;;;;;9.13;60.18;98387.84;10489590;28;20051;-69
2024/01/05 10:14:13;;;;;;;12.57;2.33;;;;;;;9.33;59.92;98389.72;10503359;28;20055;-69
2024/01/05 10:19:35;;;;;;;4.75;1.63;;;;;;;9.27;59.84;98392.81;10502119;28;20051;-68
2024/01/05 10:25:13;;;;;;;3.88;1.02;;;;;;;9.41;59.30;98393.38;10502555;28;20515;-68
2024/01/05 10:30:35;;;;;;;1.98;1.40;;;;;;;9.57;59.33;98396.44;10488233;28;20130;-68
2024/01/05 10:36:04;;;;;;;2.97;1.42;;;;;;;9.54;58.82;98401.88;10489190;28;20058;-68
2024/01/05 10:41:27;;;;;;;2.33;1.00;;;;;;;9.49;59.11;98397.97;10502711;28;20056;-68
2024/01/05 10:46:51;;;;;;;5.07;1.25;;;;;;;9.61;59.13;98399.63;10502554;28;20066;-69
2024/01/05 10:52:14;;;;;;;3.00;1.42;;;;;;;9.65;58.24;98394.03;10502397;28;20507;-68
2024/01/05 10:57:36;;;;;;;1.63;0.93;;;;;;;9.72;58.87;98383.97;10502638;28;20122;-69
2024/01/05 11:03:14;;;;;;;1.70;1.10;;;;;;;9.85;58.13;98389.03;10494605;28;20059;-69
2024/01/05 11:09:21;;;;;;;1.25;0.90;;;;;;;9.64;57.71;98392.38;10500992;28;20131;-68
2024/01/05 11:14:58;;;;;;;2.47;1.20;;;;;;;9.71;58.07;98373.66;10487015;28;20062;-69
2024/01/05 11:20:49;;;;;;;2.80;1.15;;;;;;;9.73;57.22;98390.03;10499343;28;20051;-69
2024/01/05 11:26:41;;;;;;;3.25;1.30;;;;;;;9.87;56.48;98368.84;10485922;28;20053;-69
2024/01/05 11:32:03;;;;;;;1.40;0.70;;;;;;;9.89;57.35;98370.34;10500070;28;20055;-69
2024/01/05 11:37:30;;;;;;;2.25;1.20;;;;;;;9.75;55.67;98377.66;10499730;28;20166;-69
2024/01/05 11:42:54;;;;;;;1.17;0.65;;;;;;;9.91;56.58;98375.47;10499056;28;20055;-69
2024/01/05 11:48:36;;;;;;;2.13;0.80;;;;;;;9.89;54.71;98366.94;10480028;28;20094;-69
2024/01/05 11:54:02;;;;;;;1.05;0.40;;;;;;;9.48;52.92;98360.59;10493013;28;20052;-68
2024/01/05 11:59:26;;;;;;;1.33;1.00;;;;;;;9.61;54.37;98363.06;10506597;28;20056;-68
2024/01/05 12:04:49;;;;;;;0.93;0.50;;;;;;;9.58;53.55;98353.69;10491481;28;20173;-68
2024/01/05 12:10:13;;;;;;;0.43;0.40;;;;;;;9.47;52.12;98353.75;10485325;28;20044;-69
2024/01/05 12:15:40;;;;;;;0.93;0.60;;;;;;;9.55;53.06;98353.97;10497750;28;20052;-69
2024/01/05 12:21:19;;;;;;;0.93;0.75;;;;;;;9.49;53.55;98341.41;10498339;28;20070;-68
2024/01/05 12:26:43;;;;;;;0.40;0.40;;;;;;;9.52;51.66;98335.13;10499409;28;20404;-68
2024/01/05 12:32:07;;;;;;;0.55;0.40;;;;;;;9.68;53.05;98334.72;10500434;28;20064;-68
2024/01/05 12:37:30;;;;;;;2.08;1.00;;;;;;;9.72;50.38;98339.59;10498051;28;20342;-68
2024/01/05 12:42:52;;;;;;;0.32;0.32;;;;;;;9.65;51.68;98344.44;10498559;28;20190;-67
2024/01/05 12:48:15;;;;;;;1.05;0.68;;;;;;;9.72;51.85;98336.13;10501405;28;20787;-68
2024/01/05 12:53:37;;;;;;;2.33;1.40;;;;;;;9.98;51.96;98343.50;10502996;28;20048;-67
2024/01/05 12:58:59;;;;;;;1.05;0.95;;;;;;;10.01;51.29;98345.84;10496901;28;20167;-68
2024/01/05 13:04:36;;;;;;;0.40;0.40;;;;;;;9.82;50.04;98352.72;10507217;28;20508;-68
2024/01/05 13:10:02;;;;;;;1.65;0.80;;;;;;;9.71;51.13;98358.00;10506966;28;20070;-67
2024/01/05 13:15:24;;;;;;;4.10;0.60;;;;;;;9.84;50.09;98369.06;10506981;28;20047;-67
2024/01/05 13:20:46;;;;;;;0.63;0.52;;;;;;;9.87;51.06;98377.47;10505855;28;20087;-68
2024/01/05 13:26:09;;;;;;;1.05;0.60;;;;;;;9.79;50.70;98382.50;10506663;28;20048;-67
2024/01/05 13:31:31;;;;;;;0.82;0.60;;;;;;;9.56;49.49;98389.53;10506534;28;20047;-67
2024/01/05 13:36:53;;;;;;;3.45;0.80;;;;;;;9.57;49.40;98391.22;10505950;28;20055;-66
2024/01/05 13:42:15;;;;;;;3.47;0.77;;;;;;;9.52;48.91;98392.53;10506040;28;20148;-67
2024/01/05 13:47:37;;;;;;;0.90;0.35;;;;;;;9.61;47.46;98399.63;10505529;28;20500;-67
2024/01/05 13:53:03;;;;;;;2.38;0.70;;;;;;;9.65;48.32;98395.81;10505756;28;20058;-66
2024/01/05 13:58:25;;;;;;;0.95;0.40;;;;;;;9.54;46.83;98391.44;10504042;28;20048;-66
2024/01/05 14:03:47;;;;;;;1.15;0.70;;;;;;;9.59;47.69;98388.47;10491073;28;20052;-67
2024/01/05 14:09:09;;;;;;;1.30;0.50;;;;;;;9.22;48.18;98398.38;10504521;28;20048;-67
2024/01/05 14:14:31;;;;;;;1.80;0.70;;;;;;;8.93;48.56;98394.63;10490895;28;20789;-67
2024/01/05 14:19:53;;;;;;;1.90;0.95;;;;;;;8.82;48.78;98386.78;10503915;28;20189;-67
2024/01/05 14:25:15;;;;;;;1.42;0.85;;;;;;;8.59;48.92;98400.72;10504154;28;20513;-67
2024/01/05 14:30:37;;;;;;;0.68;0.60;;;;;;;8.48;48.65;98392.91;10504029;28;20055;-67
2024/01/05 14:36:03;;;;;;;2.22;0.63;;;;;;;8.33;48.10;98405.31;10504222;28;20271;-67
2024/01/05 14:41:25;;;;;;;2.50;0.65;;;;;;;8.37;48.85;98405.91;10503679;28;20058;-66
2024/01/05 14:46:50;;;;;;;0.40;0.40;;;;;;;8.32;48.60;98400.22;10503743;28;20071;-67
2024/01/05 14:52:12;;;;;;;0.82;0.50;;;;;;;8.36;48.39;98389.47;10503099;28;20135;-66
2024/01/05 14:57:34;;;;;;;3.05;0.55;;;;;;;8.16;48.04;98395.28;10503116;28;20090;-67
2024/01/05 15:02:58;;;;;;;0.65;0.52;;;;;;;8.26;48.48;98398.88;10503354;28;20087;-66
2024/01/05 15:08:19;;;;;;;0.77;0.65;;;;;;;8.16;47.64;98410.13;10502124;28;20078;-67
2024/01/05 15:13:41;;;;;;;0.50;0.40;;;;;;;7.96;47.64;98417.56;10500451;28;20048;-66
2024/01/05 15:19:04;;;;;;;1.45;0.65;;;;;;;7.98;48.35;98422.66;10501866;28;20058;-67
2024/01/05 15:24:27;;;;;;;0.68;0.68;;;;;;;7.91;49.06;98432.72;10502633;28;20048;-67
2024/01/05 15:29:49;;;;;;;1.63;1.10;;;;;;;7.80;48.94;98437.84;10501719;28;20527;-67
2024/01/05 15:35:11;;;;;;;1.92;1.15;;;;;;;7.92;49.17;98439.56;10502053;28;20158;-66
2024/01/05 15:40:33;;;;;;;1.75;0.75;;;;;;;7.82;49.24;98445.53;10473878;28;20056;-66
2024/01/05 15:45:59;;;;;;;3.60;0.88;;;;;;;7.73;49.31;98447.03;10473473;28;20094;-67
2024/01/05 15:51:23;;;;;;;0.85;0.65;;;;;;;7.78;49.57;98455.34;10459650;28;20080;-68
2024/01/05 15:56:46;;;;;;;1.15;0.98;;;;;;;7.65;49.68;98454.53;10472914;28;20098;-66
2024/01/05 16:02:08;;;;;;;2.38;1.40;;;;;;;7.52;50.21;98442.53;10473143;28;20102;-66
2024/01/05 16:07:31;;;;;;;2.22;1.05;;;;;;;7.44;50.15;98456.06;10473465;28;20529;-68
2024/01/05 16:12:53;;;;;;;0.50;0.50;;;;;;;7.34;50.57;98449.03;10473084;28;20060;-69
2024/01/05 16:18:14;;;;;;;0.60;0.60;;;;;;;7.18;50.88;98433.66;10473129;28;20147;-68
2024/01/05 16:23:39;;;;;;;2.15;1.00;;;;;;;7.02;51.29;98441.69;10474775;28;20052;-68
2024/01/05 16:29:01;;;;;;;4.10;1.50;;;;;;;6.92;51.42;98445.84;10466978;28;20052;-68
2024/01/05 16:34:23;;;;;;;2.90;1.80;;;;;;;6.86;51.72;98451.47;10478176;28;20528;-69
2024/01/05 16:39:45;;;;;;;2.47;1.85;;;;;;;6.85;51.91;98459.38;10480017;28;20044;-68
2024/01/05 16:45:08;;;;;;;2.65;1.00;;;;;;;6.60;52.41;98462.78;10480542;28;20135;-68
2024/01/05 16:50:31;;;;;;;2.97;1.58;;;;;;;6.54;52.64;98468.38;10480497;28;20193;-67
2024/01/05 16:55:53;;;;;;;1.65;1.08;;;;;;;6.46;52.88;98482.81;10479673;28;20052;-68
2024/01/05 17:01:15;;;;;;;3.08;1.38;;;;;;;6.38;53.17;98485.91;10479730;28;20057;-68
2024/01/05 17:06:37;;;;;;;0.88;0.75;;;;;;;6.29;53.47;98502.09;10479412;28;20835;-68
2024/01/05 17:11:59;;;;;;;3.80;1.83;;;;;;;6.22;53.97;98488.66;10478840;28;20056;-67
2024/01/05 17:17:21;;;;;;;3.97;1.50;;;;;;;6.25;54.05;98483.28;10465131;28;21021;-68
2024/01/05 17:22:43;;;;;;;1.35;1.23;;;;;;;6.21;54.10;98486.97;10478604;28;20057;-68
2024/01/05 17:28:05;;;;;;;4.78;1.17;;;;;;;6.17;54.47;98497.66;10479082;28;20067;-68
2024/01/05 17:33:27;;;;;;;0.80;0.80;;;;;;;6.17;54.39;98488.09;10477431;28;20127;-68
2024/01/05 17:38:50;;;;;;;3.33;1.30;;;;;;;6.20;54.05;98485.34;10499845;28;20125;-68
2024/01/05 17:44:12;;;;;;;2.08;0.90;;;;;;;6.22;54.27;98467.88;10506058;28;20633;-68
2024/01/05 17:49:34;;;;;;;4.10;1.08;;;;;;;6.20;54.31;98481.91;10504573;28;20055;-69
2024/01/05 17:54:56;;;;;;;1.65;0.90;;;;;;;6.14;54.60;98496.09;10505033;28;20397;-68
2024/01/05 18:00:18;;;;;;;2.38;1.00;;;;;;;6.18;54.38;98496.75;10519694;28;20158;-68
2024/01/05 18:05:20;;;;;;;4.47;1.25;;;;;;;6.17;54.51;98501.09;10502091;28;20151;-68
2024/01/05 18:10:22;;;;;;;1.15;0.70;;;;;;;6.16;54.56;98508.97;10502086;28;20040;-68
2024/01/05 18:15:24;;;;;;;1.05;0.90;;;;;;;6.13;54.63;98520.38;10519261;28;20556;-67
2024/01/05 18:20:26;;;;;;;1.20;0.75;;;;;;;6.11;54.66;98527.44;10519252;28;20136;-68
2024/01/05 18:25:28;;;;;;;2.60;0.80;;;;;;;6.11;54.72;98529.19;10517512;28;20167;-63
2024/01/05 18:30:33;;;;;;;1.83;1.10;;;;;;;5.93;55.12;98536.38;10516238;28;20043;-64
2024/01/05 18:35:35;;;;;;;0.85;0.85;;;;;;;5.91;55.17;98540.00;10516303;28;20676;-64
2024/01/05 18:40:37;;;;;;;2.15;1.33;;;;;;;5.82;55.45;98525.84;10517585;28;20134;-63
2024/01/05 18:45:39;;;;;;;1.77;0.90;;;;;;;5.79;55.44;98530.41;10515929;28;20053;-63
2024/01/05 18:50:41;;;;;;;2.17;1.08;;;;;;;5.70;55.80;98539.56;10518165;28;20044;-63
2024/01/05 18:55:43;;;;;;;6.03;0.88;;;;;;;5.73;55.78;98552.38;10517230;28;20152;-63
2024/01/05 19:00:45;;;;;;;1.85;0.98;;;;;;;5.75;55.90;98549.69;10533018;27;20059;-63
2024/01/05 19:05:47;;;;;;;1.88;1.20;;;;;;;5.71;56.05;98549.03;10513981;28;20055;-63
2024/01/05 19:10:49;;;;;;;6.45;1.38;;;;;;;5.80;56.09;98539.88;10516336;28;20324;-63
2024/01/05 19:15:51;;;;;;;2.47;1.25;;;;;;;5.86;56.04;98549.84;10515290;28;20123;-64
2024/01/05 19:20:53;;;;;;;2.35;1.85;;;;;;;5.97;55.84;98545.66;10513722;28;20044;-63
2024/01/05 19:25:56;;;;;;;3.83;0.75;;;;;;;6.03;55.73;98544.41;10515338;28;20099;-63
2024/01/05 19:31:00;;;;;;;2.63;1.20;;;;;;;6.01;55.82;98549.72;10511993;28;20123;-63
2024/01/05 19:36:12;;;;;;;3.10;1.08;;;;;;;6.02;55.50;98558.34;10514039;28;20048;-63
2024/01/05 19:41:14;;;;;;;1.40;1.05;;;;;;;6.28;55.78;98562.75;10514638;28;20655;-63
2024/01/05 19:46:18;;;;;;;1.75;1.15;;;;;;;6.26;55.54;98552.47;10511763;28;20048;-64
2024/01/05 19:51:20;;;;;;;5.63;1.85;;;;;;;6.24;55.40;98553.44;10516067;28;20036;-63
2024/01/05 19:56:22;;;;;;;2.92;1.10;;;;;;;6.09;55.66;98560.44;10515179;28;20160;-63
2024/01/05 20:01:26;;;;;;;4.63;1.00;;;;;;;6.09;55.94;98564.78;10523124;28;20050;-63
2024/01/05 20:06:28;;;;;;;2.15;1.42;;;;;;;6.07;55.97;98564.06;10522740;28;20613;-63
2024/01/05 20:11:30;;;;;;;3.15;1.40;;;;;;;6.09;56.04;98570.81;10522837;28;20048;-64
2024/01/05 20:16:32;;;;;;;1.05;0.90;;;;;;;6.08;56.17;98569.16;10521602;28;20051;-63
2024/01/05 20:21:55;;;;;;;1.35;0.80;;;;;;;6.03;56.13;98576.41;10492143;28;20450;-63
2024/01/05 20:26:57;;;;;;;3.30;1.50;;;;;;;6.08;56.12;98578.72;10521855;28;20055;-64
2024/01/05 20:32:01;;;;;;;2.67;1.17;;;;;;;5.97;56.14;98586.31;10536826;28;20087;-63
2024/01/05 20:37:03;;;;;;;1.88;0.95;;;;;;;5.92;56.19;98585.78;10520402;28;20067;-64
2024/01/05 20:42:05;;;;;;;0.75;0.60;;;;;;;5.93;56.67;98577.91;10521354;28;20051;-64
2024/01/05 20:47:08;;;;;;;3.38;1.10;;;;;;;5.97;56.66;98586.31;10502416;28;20036;-63
2024/01/05 20:52:10;;;;;;;3.97;1.38;;;;;;;6.11;56.47;98579.34;10499553;28;20058;-63
2024/01/05 20:57:12;;;;;;;1.10;1.00;;;;;;;6.05;56.75;98573.69;10519409;28;20529;-64
2024/01/05 21:02:14;;;;;;;1.55;0.95;;;;;;;6.05;56.60;98566.75;10517312;28;20251;-64
2024/01/05 21:07:16;;;;;;;0.95;0.85;;;;;;;6.03;56.49;98575.56;10516227;28;20126;-64
2024/01/05 21:12:19;;;;;;;1.02;0.75;;;;;;;6.03;56.37;98581.59;10518120;28;20063;-63
2024/01/05 21:17:22;;;;;;;3.15;1.10;;;;;;;6.01;56.64;98587.81;10518730;28;20048;-63
2024/01/05 21:22:24;;;;;;;1.83;0.93;;;;;;;5.90;56.49;98585.88;10519996;28;20055;-63
2024/01/05 21:27:26;;;;;;;0.80;0.68;;;;;;;5.91;56.66;98587.56;10520371;28;20044;-63
2024/01/05 21:32:28;;;;;;;2.03;0.77;;;;;;;5.96;56.55;98582.88;10518560;28;20496;-64
2024/01/05 21:37:31;;;;;;;2.58;0.90;;;;;;;5.94;56.71;98582.16;10519486;28;20051;-63
2024/01/05 21:42:33;;;;;;;1.55;0.80;;;;;;;5.98;56.77;98596.59;10516263;28;20148;-64
2024/01/05 21:47:37;;;;;;;1.83;1.00;;;;;;;6.00;56.59;98592.16;10515034;28;20500;-64
2024/01/05 21:52:39;;;;;;;4.90;1.05;;;;;;;6.01;56.78;98599.03;10515707;28;20488;-64
2024/01/05 21:57:41;;;;;;;0.80;0.80;;;;;;;6.14;56.49;98605.09;10515362;28;20063;-64
2024/01/05 22:02:43;;;;;;;2.83;1.10;;;;;;;6.23;56.46;98614.06;10518671;28;21958;-64
2024/01/05 22:07:45;;;;;;;3.05;0.93;;;;;;;6.22;56.43;98607.22;10517050;28;20125;-64
2024/01/05 22:12:51;;;;;;;1.80;0.90;;;;;;;6.21;56.60;98602.94;10501057;28;20500;-65
2024/01/05 22:17:53;;;;;;;1.67;0.90;;;;;;;6.27;56.56;98606.03;10518484;28;20047;-64
2024/01/05 22:22:55;;;;;;;5.88;1.00;;;;;;;6.20;56.50;98609.94;10518633;28;20044;-64
2024/01/05 22:27:58;;;;;;;3.95;1.10;;;;;;;6.28;56.63;98602.53;10518323;28;20124;-65
2024/01/05 22:33:00;;;;;;;6.38;1.17;;;;;;;6.16;56.59;98598.06;10518496;28;21165;-64
2024/01/05 22:38:02;;;;;;;1.90;0.75;;;;;;;6.19;56.72;98603.06;10518351;28;20044;-64
2024/01/05 22:43:04;;;;;;;1.95;1.00;;;;;;;6.22;56.68;98615.03;10517402;28;20633;-64
2024/01/05 22:48:07;;;;;;;5.68;1.67;;;;;;;6.18;56.76;98619.59;10499030;28;20047;-64
2024/01/05 22:53:09;;;;;;;0.73;0.65;;;;;;;6.35;56.41;98616.78;10500356;28;20094;-64
2024/01/05 22:58:11;;;;;;;1.13;0.70;;;;;;;6.29;56.48;98605.94;10500360;28;20695;-63
2024/01/05 23:03:16;;;;;;;1.02;0.77;;;;;;;6.40;56.29;98607.84;10516655;28;20058;-63
2024/01/05 23:08:19;;;;;;;3.25;1.10;;;;;;;6.30;56.35;98612.81;10499334;28;20039;-64
2024/01/05 23:13:24;;;;;;;1.98;0.90;;;;;;;6.39;56.47;98617.41;10516845;28;20143;-64
2024/01/05 23:18:27;;;;;;;1.65;0.82;;;;;;;6.31;56.20;98606.66;10516825;28;20116;-63
2024/01/05 23:23:29;;;;;;;2.65;0.88;;;;;;;6.38;56.55;98609.72;10516309;28;20079;-63
2024/01/05 23:28:31;;;;;;;1.45;0.80;;;;;;;6.45;56.48;98618.78;10532093;28;20573;-63
2024/01/05 23:33:33;;;;;;;2.42;0.90;;;;;;;6.53;56.22;98617.34;10516062;28;20426;-63
2024/01/05 23:38:36;;;;;;;2.38;1.10;;;;;;;6.61;56.14;98624.66;10514852;28;20442;-63
2024/01/05 23:43:39;;;;;;;2.00;0.68;;;;;;;6.66;56.15;98623.44;10497468;28;20059;-64
2024/01/05 23:48:41;;;;;;;0.80;0.80;;;;;;;6.65;55.82;98623.53;10516278;28;20193;-64
2024/01/05 23:53:44;;;;;;;3.58;1.00;;;;;;;6.54;55.93;98620.78;10516255;28;20052;-64
2024/01/05 23:58:46;;;;;;;3.33;1.15;;;;;;;6.66;56.00;98620.00;10515381;28;20051;-63
